createdAt,value
2023-02-14T00:00:24.462Z,61.58
2023-02-14T00:02:51.291Z,60.85
2023-02-14T00:05:17.895Z,60.88
2023-02-14T00:07:44.381Z,60.29
2023-02-14T00:10:11.012Z,60.27
2023-02-14T00:12:37.476Z,60.34
2023-02-14T00:15:04.124Z,60.13
2023-02-14T00:17:30.579Z,59.77
2023-02-14T00:19:57.051Z,59.69
2023-02-14T00:22:23.545Z,59.94
2023-02-14T00:24:50.024Z,60.03
2023-02-14T00:27:16.606Z,60.15
2023-02-14T00:29:43.085Z,60.50
2023-02-14T00:32:09.723Z,60.18
2023-02-14T00:34:36.485Z,61.46
2023-02-14T00:37:04.203Z,61.11
2023-02-14T00:39:30.797Z,61.60
2023-02-14T00:41:57.371Z,60.84
2023-02-14T00:44:23.857Z,61.02
2023-02-14T00:46:50.382Z,61.57
2023-02-14T00:49:17.407Z,61.32
2023-02-14T00:51:43.916Z,61.24
2023-02-14T00:54:10.384Z,61.55
2023-02-14T00:56:36.998Z,61.61
2023-02-14T00:59:03.460Z,61.99
2023-02-14T01:01:29.948Z,61.24
2023-02-14T01:03:56.684Z,60.53
2023-02-14T01:06:23.144Z,61.10
2023-02-14T01:08:49.601Z,60.50
2023-02-14T01:11:18.776Z,61.23
2023-02-14T01:13:46.210Z,61.14
2023-02-14T01:16:16.419Z,61.74
2023-02-14T01:18:43.635Z,62.28
2023-02-14T01:21:16.135Z,62.33
2023-02-14T01:23:44.451Z,62.30
2023-02-14T01:26:15.086Z,61.99
2023-02-14T01:28:43.090Z,61.70
2023-02-14T01:31:13.632Z,61.74
2023-02-14T01:33:41.954Z,62.00
2023-02-14T01:36:16.142Z,61.58
2023-02-14T01:38:42.674Z,61.18
2023-02-14T01:41:09.189Z,61.83
2023-02-14T01:43:58.690Z,60.94
2023-02-14T01:46:28.616Z,60.00
2023-02-14T01:49:03.250Z,60.12
2023-02-14T01:51:31.777Z,60.92
2023-02-14T01:54:00.253Z,60.67
2023-02-14T01:56:43.497Z,60.27
2023-02-14T01:59:16.009Z,60.08
2023-02-14T02:01:43.456Z,60.25
2023-02-14T02:04:17.669Z,60.35
2023-02-14T02:06:54.297Z,60.12
2023-02-14T02:09:48.946Z,61.08
2023-02-14T02:12:15.549Z,60.23
2023-02-14T02:14:43.078Z,60.15
2023-02-14T02:17:22.406Z,60.04
2023-02-14T02:19:58.036Z,59.88
2023-02-14T02:22:55.538Z,60.87
2023-02-14T02:25:46.711Z,60.46
2023-02-14T02:28:18.836Z,60.57
2023-02-14T02:31:36.865Z,60.27
2023-02-14T02:34:39.032Z,60.87
2023-02-14T02:37:11.508Z,60.41
2023-02-14T02:39:59.163Z,60.41
2023-02-14T02:43:09.978Z,60.16
2023-02-14T02:46:03.860Z,60.69
2023-02-14T02:49:13.037Z,60.60
2023-02-14T02:51:53.162Z,59.96
2023-02-14T02:54:34.795Z,59.68
2023-02-14T02:57:07.226Z,59.81
2023-02-14T02:59:41.561Z,60.49
2023-02-14T03:02:25.579Z,60.48
2023-02-14T03:04:59.287Z,60.71
2023-02-14T03:07:28.454Z,60.24
2023-02-14T03:09:58.048Z,60.17
2023-02-14T03:12:33.284Z,60.05
2023-02-14T03:15:31.141Z,60.15
2023-02-14T03:18:16.241Z,60.98
2023-02-14T03:20:57.929Z,61.74
2023-02-14T03:23:38.807Z,61.42
2023-02-14T03:26:17.105Z,61.11
2023-02-14T03:29:20.885Z,62.06
2023-02-14T03:32:03.662Z,61.81
2023-02-14T03:34:36.654Z,60.93
2023-02-14T03:37:13.941Z,60.95
2023-02-14T03:39:56.581Z,60.73
2023-02-14T03:42:33.958Z,60.74
2023-02-14T03:45:05.615Z,60.59
2023-02-14T03:47:35.856Z,60.79
2023-02-14T03:50:09.216Z,60.64
2023-02-14T03:52:38.672Z,61.26
2023-02-14T03:55:08.596Z,61.63
2023-02-14T03:57:39.650Z,60.92
2023-02-14T04:00:07.119Z,60.55
2023-02-14T04:02:44.076Z,60.72
2023-02-14T04:05:22.747Z,61.15
2023-02-14T04:07:52.682Z,60.93
2023-02-14T04:10:21.062Z,60.99
2023-02-14T04:13:05.536Z,61.25
2023-02-14T04:15:42.404Z,62.26
2023-02-14T04:18:09.780Z,61.76
2023-02-14T04:20:36.247Z,61.39
2023-02-14T04:23:03.738Z,60.61
2023-02-14T04:25:30.551Z,60.25
2023-02-14T04:27:57.073Z,60.65
2023-02-14T04:30:23.655Z,61.45
2023-02-14T04:32:50.186Z,61.24
2023-02-14T04:35:16.778Z,61.66
2023-02-14T04:37:43.253Z,61.73
2023-02-14T04:40:10.357Z,61.50
2023-02-14T04:42:36.924Z,61.39
2023-02-14T04:45:04.464Z,60.19
2023-02-14T04:47:31.131Z,60.64
2023-02-14T04:49:57.753Z,60.75
2023-02-14T04:52:24.368Z,60.59
2023-02-14T04:54:50.835Z,60.47
2023-02-14T04:57:17.288Z,60.46
2023-02-14T04:59:43.740Z,59.68
2023-02-14T05:02:10.398Z,60.21
2023-02-14T05:04:37.033Z,59.94
2023-02-14T05:07:03.810Z,60.64
2023-02-14T05:09:30.375Z,59.64
2023-02-14T05:11:56.841Z,60.27
2023-02-14T05:14:23.474Z,59.55
2023-02-14T05:16:50.052Z,60.17
2023-02-14T05:19:16.523Z,59.80
2023-02-14T05:21:43.011Z,59.70
2023-02-14T05:24:13.249Z,59.97
2023-02-14T05:26:39.754Z,59.93
2023-02-14T05:29:06.420Z,59.62
2023-02-14T05:31:32.998Z,60.02
2023-02-14T05:33:59.836Z,59.10
2023-02-14T05:36:26.447Z,58.80
2023-02-14T05:38:52.930Z,59.11
2023-02-14T05:41:19.415Z,59.05
2023-02-14T05:43:45.887Z,58.58
2023-02-14T05:46:12.437Z,58.79
2023-02-14T05:48:38.958Z,58.81
2023-02-14T05:51:08.639Z,58.49
2023-02-14T05:53:35.353Z,59.03
2023-02-14T05:56:02.257Z,59.45
2023-02-14T05:58:28.795Z,59.33
2023-02-14T06:00:57.380Z,58.91
2023-02-14T06:03:24.299Z,59.07
2023-02-14T06:05:50.873Z,58.88
2023-02-14T06:08:17.349Z,59.21
2023-02-14T06:10:43.981Z,58.99
2023-02-14T06:13:10.482Z,59.12
2023-02-14T06:15:38.053Z,59.42
2023-02-14T06:18:05.713Z,59.38
2023-02-14T06:20:32.548Z,59.75
2023-02-14T06:22:59.245Z,61.19
2023-02-14T06:25:26.302Z,61.49
2023-02-14T06:27:56.635Z,61.87
2023-02-14T06:30:23.202Z,62.91
2023-02-14T06:32:52.711Z,62.59
2023-02-14T06:35:19.556Z,64.35
2023-02-14T06:37:46.403Z,65.00
2023-02-14T06:40:14.061Z,64.70
2023-02-14T06:42:40.655Z,65.36
2023-02-14T06:45:07.785Z,65.04
2023-02-14T06:47:35.231Z,63.03
2023-02-14T06:50:02.607Z,61.87
2023-02-14T06:52:29.071Z,62.13
2023-02-14T06:54:55.576Z,60.17
2023-02-14T06:57:22.090Z,59.34
2023-02-14T06:59:48.584Z,58.70
2023-02-14T07:02:15.163Z,58.50
2023-02-14T07:04:41.747Z,58.46
2023-02-14T07:07:08.247Z,57.86
2023-02-14T07:09:34.736Z,57.62
2023-02-14T07:12:01.252Z,58.09
2023-02-14T07:14:27.710Z,57.68
2023-02-14T07:16:54.168Z,58.05
2023-02-14T07:19:20.688Z,58.52
2023-02-14T07:21:47.233Z,58.66
2023-02-14T07:24:13.769Z,60.00
2023-02-14T07:26:40.259Z,59.53
2023-02-14T07:29:06.756Z,59.24
2023-02-14T07:31:33.353Z,59.10
2023-02-14T07:33:59.890Z,58.91
2023-02-14T07:36:26.641Z,58.45
2023-02-14T07:38:53.148Z,58.14
2023-02-14T07:41:19.648Z,57.96
2023-02-14T07:43:46.172Z,57.51
2023-02-14T07:46:12.855Z,57.64
2023-02-14T07:48:39.348Z,58.16
2023-02-14T07:51:05.848Z,57.27
2023-02-14T07:53:32.368Z,56.82
2023-02-14T07:55:58.929Z,58.63
2023-02-14T07:58:25.440Z,58.26
2023-02-14T08:00:52.012Z,60.43
2023-02-14T08:03:18.619Z,60.63
2023-02-14T08:05:48.098Z,60.96
2023-02-14T08:08:14.612Z,60.40
2023-02-14T08:10:41.152Z,59.64
2023-02-14T08:13:07.756Z,59.72
2023-02-14T08:15:35.364Z,60.03
2023-02-14T08:18:01.853Z,60.23
2023-02-14T08:20:28.318Z,63.23
2023-02-14T08:22:55.803Z,63.68
2023-02-14T08:25:22.341Z,66.09
2023-02-14T08:27:48.840Z,67.37
2023-02-14T08:30:15.691Z,69.04
2023-02-14T08:32:52.365Z,69.83
2023-02-14T08:35:18.906Z,69.59
2023-02-14T08:37:45.379Z,69.86
2023-02-14T08:40:12.345Z,68.92
2023-02-14T08:42:38.869Z,68.62
2023-02-14T08:45:06.160Z,68.31
2023-02-14T08:47:33.300Z,67.63
2023-02-14T08:49:59.829Z,68.01
2023-02-14T08:52:26.338Z,67.10
2023-02-14T08:54:52.824Z,66.29
2023-02-14T08:57:19.346Z,65.84
2023-02-14T08:59:45.887Z,65.01
2023-02-14T09:02:13.377Z,64.90
2023-02-14T09:04:40.100Z,64.70
2023-02-14T09:07:06.622Z,64.33
2023-02-14T09:09:33.190Z,63.79
2023-02-14T09:12:04.450Z,63.55
2023-02-14T09:14:38.121Z,63.80
2023-02-14T09:17:05.616Z,63.96
2023-02-14T09:19:33.337Z,63.90
2023-02-14T09:22:00.357Z,63.77
2023-02-14T09:24:26.847Z,63.61
2023-02-14T09:26:54.018Z,64.62
2023-02-14T09:29:20.503Z,64.74
2023-02-14T09:31:47.066Z,64.92
2023-02-14T09:34:13.708Z,64.85
2023-02-14T09:36:40.216Z,63.73
2023-02-14T09:39:06.832Z,63.20
2023-02-14T09:42:14.806Z,63.04
2023-02-14T09:45:04.483Z,62.43
2023-02-14T09:47:41.972Z,62.30
2023-02-14T09:50:43.999Z,62.24
2023-02-14T09:53:36.496Z,60.78
2023-02-14T09:56:25.551Z,62.18
2023-02-14T09:59:11.793Z,63.04
2023-02-14T10:01:51.053Z,63.11
2023-02-14T10:04:40.382Z,63.80
2023-02-14T10:07:12.991Z,64.26
2023-02-14T10:10:00.347Z,62.65
2023-02-14T10:12:39.012Z,62.41
2023-02-14T10:15:21.755Z,62.29
2023-02-14T10:18:10.256Z,61.24
2023-02-14T10:20:55.271Z,60.11
2023-02-14T10:23:33.300Z,59.24
2023-02-14T10:26:25.863Z,60.37
2023-02-14T10:28:52.416Z,61.28
2023-02-14T10:31:19.001Z,61.44
2023-02-14T10:33:51.260Z,61.71
2023-02-14T10:37:07.473Z,61.57
2023-02-14T10:40:01.929Z,60.94
2023-02-14T10:42:44.095Z,60.54
2023-02-14T10:45:33.538Z,59.85
2023-02-14T10:48:35.003Z,59.51
2023-02-14T10:51:25.101Z,59.18
2023-02-14T10:54:16.531Z,58.39
2023-02-14T10:56:52.062Z,58.31
2023-02-14T10:59:35.410Z,59.10
2023-02-14T11:02:02.218Z,59.39
2023-02-14T11:04:31.760Z,59.36
2023-02-14T11:06:58.321Z,60.08
2023-02-14T11:09:24.911Z,59.29
2023-02-14T11:11:58.931Z,59.12
2023-02-14T11:14:28.019Z,57.47
2023-02-14T11:16:55.462Z,57.31
2023-02-14T11:19:29.338Z,58.65
2023-02-14T11:21:59.334Z,58.91
2023-02-14T11:24:30.235Z,59.02
2023-02-14T11:27:02.387Z,58.98
2023-02-14T11:29:35.108Z,58.72
2023-02-14T11:32:12.724Z,58.65
2023-02-14T11:34:54.043Z,58.90
2023-02-14T11:37:23.265Z,59.10
2023-02-14T11:39:52.122Z,60.32
2023-02-14T11:42:37.022Z,61.31
2023-02-14T11:45:05.702Z,59.90
2023-02-14T11:47:36.465Z,59.81
2023-02-14T11:50:07.311Z,60.71
2023-02-14T11:52:45.633Z,60.47
2023-02-14T11:55:27.030Z,60.39
2023-02-14T11:57:55.333Z,59.07
2023-02-14T12:00:22.906Z,59.15
2023-02-14T12:02:54.214Z,59.75
2023-02-14T12:05:30.997Z,59.64
2023-02-14T12:08:02.435Z,59.30
2023-02-14T12:10:34.581Z,58.43
2023-02-14T12:13:09.734Z,58.14
2023-02-14T12:15:40.133Z,56.91
2023-02-14T12:18:47.023Z,56.37
2023-02-14T12:21:39.546Z,56.36
2023-02-14T12:24:23.660Z,55.86
2023-02-14T12:27:00.333Z,55.88
2023-02-14T12:29:54.200Z,54.50
2023-02-14T12:32:25.353Z,54.30
2023-02-14T12:35:17.176Z,53.86
2023-02-14T12:38:08.446Z,53.57
2023-02-14T12:40:47.028Z,53.00
2023-02-14T12:43:27.255Z,53.25
2023-02-14T12:46:12.980Z,52.96
2023-02-14T12:49:13.344Z,53.26
2023-02-14T12:51:58.762Z,53.25
2023-02-14T12:55:05.039Z,53.72
2023-02-14T12:58:13.326Z,53.91
2023-02-14T13:01:10.353Z,54.14
2023-02-14T13:03:36.860Z,53.40
2023-02-14T13:06:08.747Z,53.40
2023-02-14T13:08:47.625Z,52.44
2023-02-14T13:11:23.700Z,51.68
2023-02-14T13:14:15.240Z,51.27
2023-02-14T13:17:03.365Z,48.97
2023-02-14T13:19:51.551Z,48.02
2023-02-14T13:22:23.699Z,47.61
2023-02-14T13:25:35.170Z,47.14
2023-02-14T13:28:06.947Z,47.37
2023-02-14T13:30:35.904Z,47.24
2023-02-14T13:33:08.205Z,46.25
2023-02-14T13:35:35.729Z,45.58
2023-02-14T13:38:08.261Z,45.12
2023-02-14T13:40:36.326Z,43.61
2023-02-14T13:43:03.646Z,42.88
2023-02-14T13:45:30.581Z,41.37
2023-02-14T13:48:18.258Z,41.70
2023-02-14T13:51:04.308Z,41.28
2023-02-14T13:53:39.060Z,41.23
2023-02-14T13:56:32.405Z,40.58
2023-02-14T13:59:03.553Z,40.22
2023-02-14T14:01:32.932Z,39.27
2023-02-14T14:04:03.658Z,39.70
2023-02-14T14:06:55.090Z,39.39
2023-02-14T14:09:41.746Z,38.66
2023-02-14T14:12:26.471Z,38.12
2023-02-14T14:15:05.158Z,37.74
2023-02-14T14:17:37.350Z,37.59
2023-02-14T14:20:26.741Z,38.13
2023-02-14T14:22:59.772Z,37.87
2023-02-14T14:25:37.396Z,36.71
2023-02-14T14:28:11.231Z,35.42
2023-02-14T14:30:44.430Z,34.61
2023-02-14T14:33:33.363Z,33.38
2023-02-14T14:36:06.703Z,32.77
2023-02-14T14:38:47.103Z,32.38
2023-02-14T14:41:13.848Z,32.23
2023-02-14T14:43:41.381Z,31.71
2023-02-14T14:46:12.490Z,31.88
2023-02-14T14:48:40.794Z,31.18
2023-02-14T14:51:17.802Z,30.31
2023-02-14T14:53:52.463Z,30.05
2023-02-14T14:56:58.863Z,29.74
2023-02-14T14:59:25.309Z,28.88
2023-02-14T15:01:51.914Z,28.95
2023-02-14T15:04:26.565Z,28.76
2023-02-14T15:06:56.558Z,28.48
2023-02-14T15:09:31.080Z,28.12
2023-02-14T15:12:01.786Z,28.02
2023-02-14T15:14:33.827Z,27.79
2023-02-14T15:17:03.961Z,27.65
2023-02-14T15:19:44.516Z,27.60
2023-02-14T15:22:41.861Z,26.71
2023-02-14T15:25:16.977Z,26.79
2023-02-14T15:27:43.929Z,27.07
2023-02-14T15:30:19.892Z,26.95
2023-02-14T15:32:49.070Z,27.12
2023-02-14T15:35:18.591Z,27.07
2023-02-14T15:37:47.130Z,27.08
2023-02-14T15:40:27.125Z,26.74
2023-02-14T15:42:54.713Z,26.78
2023-02-14T15:45:23.265Z,26.72
2023-02-14T15:47:53.826Z,26.45
2023-02-14T15:50:26.902Z,26.95
2023-02-14T15:53:20.075Z,26.70
2023-02-14T15:55:48.619Z,26.79
2023-02-14T15:58:23.836Z,26.78
2023-02-14T16:00:53.244Z,26.71
2023-02-14T16:03:23.828Z,26.98
2023-02-14T16:05:51.257Z,25.96
2023-02-14T16:08:23.407Z,27.34
2023-02-14T16:11:02.275Z,27.26
2023-02-14T16:13:34.967Z,27.34
2023-02-14T16:16:15.701Z,27.37
2023-02-14T16:18:47.992Z,26.88
2023-02-14T16:21:18.309Z,26.15
2023-02-14T16:23:50.250Z,26.91
2023-02-14T16:26:16.804Z,27.77
2023-02-14T16:28:43.549Z,28.26
2023-02-14T16:31:16.757Z,28.96
2023-02-14T16:33:43.372Z,29.54
2023-02-14T16:36:31.160Z,31.02
2023-02-14T16:39:01.956Z,31.24
2023-02-14T16:41:29.981Z,31.83
2023-02-14T16:43:56.866Z,32.34
2023-02-14T16:46:28.432Z,33.00
2023-02-14T16:48:55.505Z,34.21
2023-02-14T16:51:26.904Z,34.73
2023-02-14T16:53:57.206Z,35.53
2023-02-14T16:56:33.479Z,35.85
2023-02-14T16:59:00.284Z,36.70
2023-02-14T17:01:26.821Z,37.57
2023-02-14T17:03:53.336Z,37.23
2023-02-14T17:06:24.479Z,37.82
2023-02-14T17:08:53.031Z,37.63
2023-02-14T17:11:24.952Z,38.22
2023-02-14T17:13:54.501Z,38.70
2023-02-14T17:16:23.422Z,39.32
2023-02-14T17:18:52.201Z,39.00
2023-02-14T17:21:23.716Z,39.54
2023-02-14T17:23:50.648Z,40.07
2023-02-14T17:26:17.134Z,40.91
2023-02-14T17:28:44.003Z,41.05
2023-02-14T17:31:10.555Z,41.50
2023-02-14T17:33:37.118Z,42.03
2023-02-14T17:36:11.793Z,42.70
2023-02-14T17:38:38.973Z,42.81
2023-02-14T17:41:23.982Z,43.74
2023-02-14T17:43:52.991Z,43.42
2023-02-14T17:46:19.634Z,44.07
2023-02-14T17:48:47.741Z,44.17
2023-02-14T17:51:16.691Z,44.33
2023-02-14T17:53:43.366Z,44.44
2023-02-14T17:56:13.934Z,44.55
2023-02-14T17:58:40.789Z,45.36
2023-02-14T18:01:10.318Z,45.74
2023-02-14T18:03:38.617Z,45.90
2023-02-14T18:06:06.581Z,46.54
2023-02-14T18:08:36.098Z,47.01
2023-02-14T18:11:06.591Z,47.15
2023-02-14T18:13:34.211Z,46.85
2023-02-14T18:16:10.036Z,47.32
2023-02-14T18:18:37.040Z,48.07
2023-02-14T18:21:05.420Z,48.79
2023-02-14T18:23:34.537Z,48.66
2023-02-14T18:26:05.242Z,49.13
2023-02-14T18:28:33.057Z,49.37
2023-02-14T18:31:08.436Z,49.55
2023-02-14T18:33:35.618Z,49.60
2023-02-14T18:36:08.496Z,49.53
2023-02-14T18:38:35.534Z,50.25
2023-02-14T18:41:06.659Z,50.35
2023-02-14T18:43:33.224Z,50.42
2023-02-14T18:46:05.292Z,50.55
2023-02-14T18:48:32.199Z,50.26
2023-02-14T18:51:12.804Z,50.28
2023-02-14T18:53:40.683Z,50.59
2023-02-14T18:56:10.373Z,51.16
2023-02-14T18:58:36.895Z,50.97
2023-02-14T19:01:18.743Z,51.16
2023-02-14T19:03:45.372Z,51.74
2023-02-14T19:06:13.105Z,51.17
2023-02-14T19:08:40.801Z,51.37
2023-02-14T19:11:15.561Z,51.50
2023-02-14T19:13:47.604Z,51.22
2023-02-14T19:16:18.053Z,51.92
2023-02-14T19:18:45.148Z,51.65
2023-02-14T19:21:19.231Z,51.64
2023-02-14T19:23:46.254Z,51.98
2023-02-14T19:26:16.667Z,51.32
2023-02-14T19:28:45.258Z,51.60
2023-02-14T19:31:13.584Z,51.62
2023-02-14T19:33:44.919Z,51.63
2023-02-14T19:36:13.953Z,51.43
2023-02-14T19:38:47.873Z,51.75
2023-02-14T19:41:26.508Z,51.46
2023-02-14T19:43:56.320Z,51.81
2023-02-14T19:46:23.073Z,51.73
2023-02-14T19:48:49.975Z,51.97
2023-02-14T19:51:20.481Z,51.87
2023-02-14T19:53:47.482Z,51.84
2023-02-14T19:56:19.338Z,51.33
2023-02-14T19:58:45.984Z,51.69
2023-02-14T20:01:42.231Z,51.90
2023-02-14T20:04:11.929Z,51.82
2023-02-14T20:06:38.428Z,51.65
2023-02-14T20:09:06.347Z,52.23
2023-02-14T20:11:41.335Z,52.72
2023-02-14T20:14:08.897Z,52.60
2023-02-14T20:16:37.094Z,52.48
2023-02-14T20:19:09.766Z,52.30
2023-02-14T20:21:36.246Z,52.23
2023-02-14T20:24:04.194Z,52.52
2023-02-14T20:26:33.468Z,52.14
2023-02-14T20:29:02.757Z,52.13
2023-02-14T20:31:31.227Z,52.96
2023-02-14T20:33:57.793Z,52.97
2023-02-14T20:36:25.385Z,52.47
2023-02-14T20:39:00.501Z,53.13
2023-02-14T20:41:27.901Z,52.82
2023-02-14T20:43:55.500Z,52.53
2023-02-14T20:46:22.876Z,51.79
2023-02-14T20:48:49.460Z,52.07
2023-02-14T20:51:18.489Z,52.03
2023-02-14T20:53:45.908Z,52.09
2023-02-14T20:56:14.414Z,52.39
2023-02-14T20:58:41.491Z,52.54
2023-02-14T21:01:19.691Z,52.56
2023-02-14T21:03:48.794Z,52.23
2023-02-14T21:06:15.481Z,52.22
2023-02-14T21:08:42.770Z,52.32
2023-02-14T21:11:11.784Z,52.15
2023-02-14T21:13:38.620Z,51.98
2023-02-14T21:16:07.645Z,52.03
2023-02-14T21:18:35.765Z,51.91
2023-02-14T21:21:07.615Z,52.15
2023-02-14T21:23:34.743Z,52.47
2023-02-14T21:26:01.268Z,52.19
2023-02-14T21:28:31.293Z,52.22
2023-02-14T21:31:05.701Z,52.84
2023-02-14T21:33:32.607Z,52.58
2023-02-14T21:36:16.048Z,53.41
2023-02-14T21:38:43.438Z,53.43
2023-02-14T21:41:19.131Z,54.34
2023-02-14T21:43:48.573Z,54.01
2023-02-14T21:46:18.009Z,53.55
2023-02-14T21:48:45.078Z,53.40
2023-02-14T21:51:11.741Z,53.70
2023-02-14T21:53:38.445Z,53.62
2023-02-14T21:56:06.406Z,53.96
2023-02-14T21:58:32.877Z,54.13
2023-02-14T22:00:59.634Z,54.32
2023-02-14T22:03:26.255Z,54.22
2023-02-14T22:06:01.764Z,54.04
2023-02-14T22:08:28.627Z,53.94
2023-02-14T22:10:55.318Z,54.12
2023-02-14T22:13:22.395Z,54.95
2023-02-14T22:15:48.950Z,54.63
2023-02-14T22:18:16.351Z,54.11
2023-02-14T22:20:43.265Z,54.53
2023-02-14T22:23:09.858Z,55.08
2023-02-14T22:25:36.355Z,54.61
2023-02-14T22:28:02.852Z,54.46
2023-02-14T22:30:29.353Z,54.95
2023-02-14T22:32:55.918Z,54.42
2023-02-14T22:35:22.382Z,54.80
2023-02-14T22:37:48.834Z,54.36
2023-02-14T22:40:15.344Z,54.12
2023-02-14T22:42:41.813Z,54.10
2023-02-14T22:45:08.705Z,53.80
2023-02-14T22:47:35.263Z,53.81
2023-02-14T22:50:01.748Z,53.31
2023-02-14T22:52:28.525Z,53.54
2023-02-14T22:54:54.988Z,53.59
2023-02-14T22:57:21.473Z,53.19
2023-02-14T22:59:47.977Z,53.74
2023-02-14T23:02:14.443Z,53.45
2023-02-14T23:04:40.940Z,53.77
2023-02-14T23:07:10.493Z,53.58
2023-02-14T23:09:36.950Z,53.48
2023-02-14T23:12:03.651Z,53.65
2023-02-14T23:14:30.122Z,53.53
2023-02-14T23:16:56.933Z,53.86
2023-02-14T23:19:26.346Z,53.07
2023-02-14T23:21:52.798Z,53.38
2023-02-14T23:24:19.289Z,52.74
2023-02-14T23:26:46.057Z,53.29
2023-02-14T23:29:12.737Z,53.38
2023-02-14T23:31:39.437Z,53.04
2023-02-14T23:34:05.967Z,52.99
2023-02-14T23:36:32.417Z,53.45
2023-02-14T23:38:58.868Z,53.33
2023-02-14T23:41:25.342Z,52.91
2023-02-14T23:43:55.009Z,53.07
2023-02-14T23:46:21.540Z,53.41
2023-02-14T23:48:48.054Z,53.06
2023-02-14T23:51:14.536Z,53.38
2023-02-14T23:53:41.007Z,53.64
2023-02-14T23:56:07.521Z,53.21
2023-02-14T23:58:34.003Z,52.89
